Time;durP1;ratioP1;P1;durP2;ratioP2;P2;SDS_P1;SDS_P2;PMS_P1;PMS_P2;Temp;Humidity;BMP_temperature;BMP_pressure;BME280_temperature;BME280_humidity;BME280_pressure;Samples;Min_cycle;Max_cycle;Signal;HPM_P1;HPM_P2
2022/04/27 00:00:18;;;;;;;;;;;;;;;;;;1026965;28;4325;-52
2022/04/27 00:01:06;;;;;;;;;;;;;;;;;;1027525;28;4311;-52
2022/04/27 00:01:36;;;;;;;;;;;;;;;;;;1028269;28;3735;-55
2022/04/27 00:02:13;;;;;;;;;;;;;;;;;;1028645;28;3569;-51
2022/04/27 00:02:43;;;;;;;;;;;;;;;;;;1028152;28;3739;-53
2022/04/27 00:03:13;;;;;;;;;;;;;;;;;;1028925;28;3683;-51
2022/04/27 00:03:43;;;;;;;;;;;;;;;;;;1027071;28;3779;-55
2022/04/27 00:04:14;;;;;;;;;;;;;;;;;;1024821;28;3788;-52
2022/04/27 00:04:44;;;;;;;;;;;;;;;;;;1023886;28;3782;-51
2022/04/27 00:05:15;;;;;;;;;;;;;;;;;;1025499;28;3612;-53
2022/04/27 00:05:45;;;;;;;;;;;;;;;;;;1025320;28;3598;-53
2022/04/27 00:06:15;;;;;;;;;;;;;;;;;;1028794;28;3903;-55
2022/04/27 00:06:46;;;;;;;;;;;;;;;;;;1029058;28;3585;-54
2022/04/27 00:07:16;;;;;;;;;;;;;;;;;;1028513;28;3927;-53
2022/04/27 00:07:46;;;;;;;;;;;;;;;;;;1028632;28;3641;-51
2022/04/27 00:08:17;;;;;;;;;;;;;;;;;;1028778;28;3897;-53
2022/04/27 00:08:47;;;;;;;;;;;;;;;;;;1028878;28;3866;-51
2022/04/27 00:09:17;;;;;;;;;;;;;;;;;;1028964;28;3741;-56
2022/04/27 00:09:47;;;;;;;;;;;;;;;;;;1027928;28;3630;-53
2022/04/27 00:10:21;;;;;;;;;;;;;;;;;;1028684;28;3663;-55
2022/04/27 00:10:51;;;;;;;;;;;;;;;;;;1028479;28;3740;-54
2022/04/27 00:11:21;;;;;;;;;;;;;;;;;;1028992;28;3496;-52
2022/04/27 00:12:12;;;;;;;;;;;;;;;;;;1028765;28;3588;-56
2022/04/27 00:12:42;;;;;;;;;;;;;;;;;;1028605;28;3906;-50
2022/04/27 00:13:16;;;;;;;;;;;;;;;;;;1028470;28;4701;-52
2022/04/27 00:13:46;;;;;;;;;;;;;;;;;;1027812;28;3546;-53
2022/04/27 00:14:16;;;;;;;;;;;;;;;;;;1027948;28;3567;-52
2022/04/27 00:14:47;;;;;;;;;;;;;;;;;;1028364;28;4494;-51
2022/04/27 00:15:20;;;;;;;;;;;;;;;;;;1026791;28;3441;-51
2022/04/27 00:15:51;;;;;;;;;;;;;;;;;;1027868;28;3462;-54
2022/04/27 00:16:21;;;;;;;;;;;;;;;;;;1028049;28;3769;-55
2022/04/27 00:16:51;;;;;;;;;;;;;;;;;;1028790;28;3782;-54
2022/04/27 00:17:21;;;;;;;;;;;;;;;;;;1029001;28;3849;-53
2022/04/27 00:17:52;;;;;;;;;;;;;;;;;;1027904;28;3719;-53
2022/04/27 00:18:22;;;;;;;;;;;;;;;;;;1027540;28;5407;-50
2022/04/27 00:18:52;;;;;;;;;;;;;;;;;;1027768;28;4672;-51
2022/04/27 00:19:23;;;;;;;;;;;;;;;;;;1027754;28;4009;-55
2022/04/27 00:19:53;;;;;;;;;;;;;;;;;;1028545;28;3858;-54
2022/04/27 00:20:24;;;;;;;;;;;;;;;;;;1028754;28;3628;-50
2022/04/27 00:20:54;;;;;;;;;;;;;;;;;;1023535;28;4972;-53
2022/04/27 00:21:24;;;;;;;;;;;;;;;;;;1024036;28;3674;-54
2022/04/27 00:21:54;;;;;;;;;;;;;;;;;;1021874;28;3729;-54
2022/04/27 00:22:25;;;;;;;;;;;;;;;;;;1024855;28;3604;-54
2022/04/27 00:22:55;;;;;;;;;;;;;;;;;;1022754;28;3439;-52
2022/04/27 00:23:26;;;;;;;;;;;;;;;;;;1023985;28;3854;-52
2022/04/27 00:23:57;;;;;;;;;;;;;;;;;;1024184;28;3782;-54
2022/04/27 00:24:27;;;;;;;;;;;;;;;;;;1024658;28;3470;-53
2022/04/27 00:25:01;;;;;;;;;;;;;;;;;;1027961;28;3970;-52
2022/04/27 00:25:32;;;;;;;;;;;;;;;;;;1027388;28;5136;-54
2022/04/27 00:26:03;;;;;;;;;;;;;;;;;;1027088;28;3664;-55
2022/04/27 00:26:34;;;;;;;;;;;;;;;;;;1028352;28;3759;-51
2022/04/27 00:27:04;;;;;;;;;;;;;;;;;;1030557;28;4127;-51
2022/04/27 00:27:34;;;;;;;;;;;;;;;;;;1027088;28;5121;-51
2022/04/27 00:28:05;;;;;;;;;;;;;;;;;;1027659;28;3480;-52
2022/04/27 00:28:35;;;;;;;;;;;;;;;;;;1028571;28;4619;-52
2022/04/27 00:29:05;;;;;;;;;;;;;;;;;;1029437;28;3918;-51
2022/04/27 00:29:36;;;;;;;;;;;;;;;;;;1027305;28;3594;-52
2022/04/27 00:30:06;;;;;;;;;;;;;;;;;;1028517;28;3888;-52
2022/04/27 00:30:37;;;;;;;;;;;;;;;;;;1028067;28;4588;-53
2022/04/27 00:31:07;;;;;;;;;;;;;;;;;;1029023;28;3589;-52
2022/04/27 00:31:37;;;;;;;;;;;;;;;;;;1027541;28;3662;-53
2022/04/27 00:32:08;;;;;;;;;;;;;;;;;;1028241;28;3765;-54
2022/04/27 00:32:38;;;;;;;;;;;;;;;;;;1027538;28;4912;-52
2022/04/27 00:33:10;;;;;;;;;;;;;;;;;;1027920;28;6688;-53
2022/04/27 00:33:40;;;;;;;;;;;;;;;;;;1028577;28;5435;-52
2022/04/27 00:34:10;;;;;;;;;;;;;;;;;;1026380;28;3614;-52
2022/04/27 00:34:40;;;;;;;;;;;;;;;;;;1028281;28;3556;-55
2022/04/27 00:35:11;;;;;;;;;;;;;;;;;;1028463;28;3623;-55
2022/04/27 00:35:41;;;;;;;;;;;;;;;;;;1025996;28;3669;-56
2022/04/27 00:36:12;;;;;;;;;;;;;;;;;;1023130;28;3829;-55
2022/04/27 00:36:42;;;;;;;;;;;;;;;;;;1025197;28;3652;-55
2022/04/27 00:37:12;;;;;;;;;;;;;;;;;;1029061;28;3484;-53
2022/04/27 00:37:42;;;;;;;;;;;;;;;;;;1028499;28;3680;-53
2022/04/27 00:38:13;;;;;;;;;;;;;;;;;;1028482;28;3844;-53
2022/04/27 00:38:43;;;;;;;;;;;;;;;;;;1028388;28;3677;-54
2022/04/27 00:39:13;;;;;;;;;;;;;;;;;;1028069;28;3755;-52
2022/04/27 00:39:44;;;;;;;;;;;;;;;;;;1026647;28;3580;-53
2022/04/27 00:40:14;;;;;;;;;;;;;;;;;;1028711;28;5485;-55
2022/04/27 00:40:44;;;;;;;;;;;;;;;;;;1024211;28;3541;-55
2022/04/27 00:41:15;;;;;;;;;;;;;;;;;;1024179;28;3670;-54
2022/04/27 00:42:01;;;;;;;;;;;;;;;;;;1025165;28;3653;-52
2022/04/27 00:42:32;;;;;;;;;;;;;;;;;;1021111;28;3942;-52
2022/04/27 00:43:02;;;;;;;;;;;;;;;;;;1025311;28;3524;-50
2022/04/27 00:43:34;;;;;;;;;;;;;;;;;;1024939;28;4703;-53
2022/04/27 00:44:04;;;;;;;;;;;;;;;;;;1022894;28;3767;-52
2022/04/27 00:44:36;;;;;;;;;;;;;;;;;;1025286;28;3906;-53
2022/04/27 00:45:06;;;;;;;;;;;;;;;;;;1027257;28;3574;-51
2022/04/27 00:45:37;;;;;;;;;;;;;;;;;;1021392;28;3894;-51
2022/04/27 00:46:09;;;;;;;;;;;;;;;;;;1023133;28;5634;-52
2022/04/27 00:46:40;;;;;;;;;;;;;;;;;;1026589;28;3754;-54
2022/04/27 00:47:10;;;;;;;;;;;;;;;;;;1027230;28;3542;-53
2022/04/27 00:47:40;;;;;;;;;;;;;;;;;;1022446;28;4686;-52
2022/04/27 00:48:17;;;;;;;;;;;;;;;;;;1027007;28;4378;-54
2022/04/27 00:48:47;;;;;;;;;;;;;;;;;;1026902;28;4177;-53
2022/04/27 00:49:17;;;;;;;;;;;;;;;;;;1027868;28;3530;-55
2022/04/27 00:49:50;;;;;;;;;;;;;;;;;;1026547;28;3732;-53
2022/04/27 00:50:20;;;;;;;;;;;;;;;;;;1028123;28;3498;-55
2022/04/27 00:50:51;;;;;;;;;;;;;;;;;;1026907;28;3983;-54
2022/04/27 00:51:23;;;;;;;;;;;;;;;;;;1027547;28;3687;-52
2022/04/27 00:51:53;;;;;;;;;;;;;;;;;;1027994;28;3807;-51
2022/04/27 00:52:24;;;;;;;;;;;;;;;;;;1028874;28;3755;-53
2022/04/27 00:52:54;;;;;;;;;;;;;;;;;;1028266;28;3513;-51
2022/04/27 00:53:24;;;;;;;;;;;;;;;;;;1028058;28;4148;-53
2022/04/27 00:53:58;;;;;;;;;;;;;;;;;;1027956;28;3413;-54
2022/04/27 00:54:29;;;;;;;;;;;;;;;;;;1025737;28;3608;-55
2022/04/27 00:54:59;;;;;;;;;;;;;;;;;;1025316;28;3818;-50
2022/04/27 00:55:30;;;;;;;;;;;;;;;;;;1027777;28;3843;-54
2022/04/27 00:56:01;;;;;;;;;;;;;;;;;;1026591;28;4489;-54
2022/04/27 00:56:31;;;;;;;;;;;;;;;;;;1028136;28;3773;-52
2022/04/27 00:57:01;;;;;;;;;;;;;;;;;;1025270;28;3504;-54
2022/04/27 00:57:33;;;;;;;;;;;;;;;;;;1027485;28;6405;-53
2022/04/27 00:58:04;;;;;;;;;;;;;;;;;;1025906;28;3791;-53
2022/04/27 00:58:34;;;;;;;;;;;;;;;;;;1028859;28;3493;-53
2022/04/27 00:59:05;;;;;;;;;;;;;;;;;;1026647;28;4420;-54
2022/04/27 00:59:35;;;;;;;;;;;;;;;;;;1029225;28;3589;-51
2022/04/27 01:00:07;;;;;;;;;;;;;;;;;;1027479;28;3478;-55
2022/04/27 01:00:38;;;;;;;;;;;;;;;;;;1026508;28;3646;-52
2022/04/27 01:01:08;;;;;;;;;;;;;;;;;;1027552;28;3614;-53
2022/04/27 01:01:38;;;;;;;;;;;;;;;;;;1028431;28;3601;-54
2022/04/27 01:02:09;;;;;;;;;;;;;;;;;;1026309;28;3508;-53
2022/04/27 01:02:40;;;;;;;;;;;;;;;;;;1027502;28;4374;-52
2022/04/27 01:03:10;;;;;;;;;;;;;;;;;;1027411;28;5303;-54
2022/04/27 01:03:41;;;;;;;;;;;;;;;;;;1029032;28;3890;-53
2022/04/27 01:04:11;;;;;;;;;;;;;;;;;;1029184;28;3900;-54
2022/04/27 01:04:41;;;;;;;;;;;;;;;;;;1026330;28;3735;-53
2022/04/27 01:05:12;;;;;;;;;;;;;;;;;;1027812;28;3628;-54
2022/04/27 01:05:42;;;;;;;;;;;;;;;;;;1028222;28;3527;-52
2022/04/27 01:06:12;;;;;;;;;;;;;;;;;;1027675;28;3994;-51
2022/04/27 01:06:43;;;;;;;;;;;;;;;;;;1027058;28;3935;-53
2022/04/27 01:07:13;;;;;;;;;;;;;;;;;;1024971;28;3786;-53
2022/04/27 01:07:43;;;;;;;;;;;;;;;;;;1025395;28;3925;-50
2022/04/27 01:08:15;;;;;;;;;;;;;;;;;;1024716;28;3754;-53
2022/04/27 01:08:46;;;;;;;;;;;;;;;;;;1025298;28;4648;-52
2022/04/27 01:09:17;;;;;;;;;;;;;;;;;;1028053;28;4223;-54
2022/04/27 01:09:48;;;;;;;;;;;;;;;;;;1027354;28;3550;-54
2022/04/27 01:10:18;;;;;;;;;;;;;;;;;;1028246;28;3603;-53
2022/04/27 01:10:48;;;;;;;;;;;;;;;;;;1031078;28;3413;-52
2022/04/27 01:11:32;;;;;;;;;;;;;;;;;;1028132;28;3812;-50
2022/04/27 01:12:10;;;;;;;;;;;;;;;;;;1027302;28;4035;-54
2022/04/27 01:12:40;;;;;;;;;;;;;;;;;;1027431;28;3602;-53
2022/04/27 01:13:11;;;;;;;;;;;;;;;;;;1028904;28;3630;-54
2022/04/27 01:13:41;;;;;;;;;;;;;;;;;;1027213;28;3640;-52
2022/04/27 01:14:12;;;;;;;;;;;;;;;;;;1025683;28;3418;-52
2022/04/27 01:14:42;;;;;;;;;;;;;;;;;;1024031;28;4284;-52
2022/04/27 01:15:13;;;;;;;;;;;;;;;;;;1024709;28;3449;-53
2022/04/27 01:15:43;;;;;;;;;;;;;;;;;;1022463;28;4223;-53
2022/04/27 01:16:13;;;;;;;;;;;;;;;;;;1027235;28;5370;-56
2022/04/27 01:16:49;;;;;;;;;;;;;;;;;;1028578;28;4607;-53
2022/04/27 01:17:23;;;;;;;;;;;;;;;;;;1028760;28;3862;-52
2022/04/27 01:17:57;;;;;;;;;;;;;;;;;;1025869;28;3522;-53
2022/04/27 01:18:27;;;;;;;;;;;;;;;;;;1028243;28;3832;-52
2022/04/27 01:18:57;;;;;;;;;;;;;;;;;;1027840;28;3935;-52
2022/04/27 01:19:27;;;;;;;;;;;;;;;;;;1028317;28;3618;-51
2022/04/27 01:19:58;;;;;;;;;;;;;;;;;;1027184;28;3648;-53
2022/04/27 01:20:32;;;;;;;;;;;;;;;;;;1028524;28;3504;-55
2022/04/27 01:21:03;;;;;;;;;;;;;;;;;;1028183;28;3496;-55
2022/04/27 01:21:33;;;;;;;;;;;;;;;;;;1026972;28;4023;-53
2022/04/27 01:22:04;;;;;;;;;;;;;;;;;;1027316;28;3612;-54
2022/04/27 01:22:34;;;;;;;;;;;;;;;;;;1026476;28;3578;-55
2022/04/27 01:23:05;;;;;;;;;;;;;;;;;;1021834;28;3599;-53
2022/04/27 01:23:35;;;;;;;;;;;;;;;;;;1027379;28;3933;-54
2022/04/27 01:24:06;;;;;;;;;;;;;;;;;;1027900;28;3503;-53
2022/04/27 01:24:36;;;;;;;;;;;;;;;;;;1026805;28;4258;-53
2022/04/27 01:25:07;;;;;;;;;;;;;;;;;;1022902;28;3997;-54
2022/04/27 01:25:45;;;;;;;;;;;;;;;;;;1022943;28;4841;-54
2022/04/27 01:26:15;;;;;;;;;;;;;;;;;;1023868;28;3586;-54
2022/04/27 01:26:47;;;;;;;;;;;;;;;;;;1024955;28;3636;-54
2022/04/27 01:27:18;;;;;;;;;;;;;;;;;;1027226;28;3849;-54
2022/04/27 01:27:48;;;;;;;;;;;;;;;;;;1027153;28;3935;-50
2022/04/27 01:28:19;;;;;;;;;;;;;;;;;;1027885;28;3854;-54
2022/04/27 01:28:50;;;;;;;;;;;;;;;;;;1026812;28;3577;-53
2022/04/27 01:29:22;;;;;;;;;;;;;;;;;;1027038;28;4645;-52
2022/04/27 01:29:53;;;;;;;;;;;;;;;;;;1028779;28;4331;-54
2022/04/27 01:30:23;;;;;;;;;;;;;;;;;;1027016;28;4779;-53
2022/04/27 01:30:57;;;;;;;;;;;;;;;;;;1028115;28;3727;-52
2022/04/27 01:31:28;;;;;;;;;;;;;;;;;;1027975;28;3687;-52
2022/04/27 01:32:00;;;;;;;;;;;;;;;;;;1027794;28;3866;-54
2022/04/27 01:32:30;;;;;;;;;;;;;;;;;;1028759;28;3788;-55
2022/04/27 01:33:06;;;;;;;;;;;;;;;;;;1027175;28;3772;-53
2022/04/27 01:33:36;;;;;;;;;;;;;;;;;;1027157;28;4415;-53
2022/04/27 01:34:07;;;;;;;;;;;;;;;;;;1026197;28;3426;-54
2022/04/27 01:34:37;;;;;;;;;;;;;;;;;;1027296;28;3822;-56
2022/04/27 01:35:07;;;;;;;;;;;;;;;;;;1028329;28;3699;-55
2022/04/27 01:35:38;;;;;;;;;;;;;;;;;;1029515;28;3477;-53
2022/04/27 01:36:15;;;;;;;;;;;;;;;;;;1028586;28;3547;-52
2022/04/27 01:36:45;;;;;;;;;;;;;;;;;;1026050;28;4787;-53
2022/04/27 01:38:04;;;;;;;;;;;;;;;;;;1025183;28;3788;-53
2022/04/27 01:38:38;;;;;;;;;;;;;;;;;;1022158;28;3717;-53
2022/04/27 01:39:08;;;;;;;;;;;;;;;;;;1022779;28;3576;-53
2022/04/27 01:39:39;;;;;;;;;;;;;;;;;;1024676;28;3794;-56
2022/04/27 01:40:09;;;;;;;;;;;;;;;;;;1023945;28;4366;-52
2022/04/27 01:40:39;;;;;;;;;;;;;;;;;;1024147;28;3633;-54
2022/04/27 01:41:10;;;;;;;;;;;;;;;;;;1027653;28;3763;-54
2022/04/27 01:41:40;;;;;;;;;;;;;;;;;;1024648;28;3451;-51
2022/04/27 01:42:11;;;;;;;;;;;;;;;;;;1025349;28;3863;-55
2022/04/27 01:42:41;;;;;;;;;;;;;;;;;;1027985;28;4495;-56
2022/04/27 01:43:15;;;;;;;;;;;;;;;;;;1027239;28;3567;-53
2022/04/27 01:43:45;;;;;;;;;;;;;;;;;;1027350;28;3511;-51
2022/04/27 01:44:15;;;;;;;;;;;;;;;;;;1025222;28;3620;-53
2022/04/27 01:44:46;;;;;;;;;;;;;;;;;;1024359;28;3792;-52
2022/04/27 01:45:16;;;;;;;;;;;;;;;;;;1024316;28;5410;-52
2022/04/27 01:45:46;;;;;;;;;;;;;;;;;;1024450;28;4196;-51
2022/04/27 01:46:16;;;;;;;;;;;;;;;;;;1028221;28;3771;-55
2022/04/27 01:46:47;;;;;;;;;;;;;;;;;;1027959;28;3688;-53
2022/04/27 01:47:17;;;;;;;;;;;;;;;;;;1027200;28;3833;-54
2022/04/27 01:47:47;;;;;;;;;;;;;;;;;;1027494;28;3754;-53
2022/04/27 01:48:18;;;;;;;;;;;;;;;;;;1027104;28;3566;-54
2022/04/27 01:48:50;;;;;;;;;;;;;;;;;;1027779;28;4161;-52
2022/04/27 01:49:20;;;;;;;;;;;;;;;;;;1024765;28;3685;-52
2022/04/27 01:49:50;;;;;;;;;;;;;;;;;;1024508;28;4624;-50
2022/04/27 01:50:21;;;;;;;;;;;;;;;;;;1024008;28;6143;-54
2022/04/27 01:50:51;;;;;;;;;;;;;;;;;;1021994;28;3810;-53
2022/04/27 01:54:37;;;;;;;;;;;;;;;;;;1028343;28;3682;-55
2022/04/27 01:55:07;;;;;;;;;;;;;;;;;;1026794;28;3724;-54
2022/04/27 01:55:37;;;;;;;;;;;;;;;;;;1028114;28;3940;-52
2022/04/27 01:56:08;;;;;;;;;;;;;;;;;;1026851;28;3806;-54
2022/04/27 01:56:38;;;;;;;;;;;;;;;;;;1026971;28;3637;-55
2022/04/27 01:57:08;;;;;;;;;;;;;;;;;;1026943;28;3665;-52
2022/04/27 01:57:39;;;;;;;;;;;;;;;;;;1028154;28;3529;-50
2022/04/27 01:58:09;;;;;;;;;;;;;;;;;;1028264;28;4379;-53
2022/04/27 01:58:39;;;;;;;;;;;;;;;;;;1026648;28;3671;-55
2022/04/27 01:59:09;;;;;;;;;;;;;;;;;;1027669;28;3908;-52
2022/04/27 01:59:41;;;;;;;;;;;;;;;;;;1023876;28;3549;-54
2022/04/27 02:00:11;;;;;;;;;;;;;;;;;;1023881;28;3506;-53
2022/04/27 02:00:41;;;;;;;;;;;;;;;;;;1024123;28;3621;-53
2022/04/27 02:01:12;;;;;;;;;;;;;;;;;;1022787;28;4741;-51
2022/04/27 02:01:43;;;;;;;;;;;;;;;;;;1026471;28;4040;-53
2022/04/27 02:02:13;;;;;;;;;;;;;;;;;;1026338;28;3391;-54
2022/04/27 02:02:43;;;;;;;;;;;;;;;;;;1027581;28;3502;-54
2022/04/27 02:03:14;;;;;;;;;;;;;;;;;;1027984;28;3764;-51
2022/04/27 02:03:45;;;;;;;;;;;;;;;;;;1027455;28;3638;-54
2022/04/27 02:04:15;;;;;;;;;;;;;;;;;;1027645;28;5467;-52
2022/04/27 02:04:46;;;;;;;;;;;;;;;;;;1028920;28;4189;-52
2022/04/27 02:05:16;;;;;;;;;;;;;;;;;;1028492;28;3523;-53
2022/04/27 02:05:47;;;;;;;;;;;;;;;;;;1026627;28;3556;-57
2022/04/27 02:06:19;;;;;;;;;;;;;;;;;;1024303;28;3612;-49
2022/04/27 02:06:49;;;;;;;;;;;;;;;;;;1023212;28;3728;-53
2022/04/27 02:07:19;;;;;;;;;;;;;;;;;;1023708;28;3507;-54
2022/04/27 02:07:50;;;;;;;;;;;;;;;;;;1023269;28;4658;-55
2022/04/27 02:08:20;;;;;;;;;;;;;;;;;;1028977;28;3785;-54
2022/04/27 02:08:50;;;;;;;;;;;;;;;;;;1028625;28;5183;-55
2022/04/27 02:09:20;;;;;;;;;;;;;;;;;;1027885;28;3650;-55
2022/04/27 02:09:51;;;;;;;;;;;;;;;;;;1024774;28;3787;-53
2022/04/27 02:10:21;;;;;;;;;;;;;;;;;;1025139;28;3752;-52
2022/04/27 02:10:51;;;;;;;;;;;;;;;;;;1024479;28;3528;-51
2022/04/27 02:11:34;;;;;;;;;;;;;;;;;;1025678;28;3711;-56
2022/04/27 02:12:12;;;;;;;;;;;;;;;;;;1029835;28;3768;-52
2022/04/27 02:12:42;;;;;;;;;;;;;;;;;;1027575;28;3576;-54
2022/04/27 02:13:12;;;;;;;;;;;;;;;;;;1026848;28;3507;-51
2022/04/27 02:13:42;;;;;;;;;;;;;;;;;;1025120;28;3667;-53
2022/04/27 02:14:13;;;;;;;;;;;;;;;;;;1024882;28;6016;-53
2022/04/27 02:14:43;;;;;;;;;;;;;;;;;;1024440;28;4179;-54
2022/04/27 02:15:13;;;;;;;;;;;;;;;;;;1024925;28;5303;-52
2022/04/27 02:15:44;;;;;;;;;;;;;;;;;;1027715;28;3805;-52
2022/04/27 02:16:14;;;;;;;;;;;;;;;;;;1026276;28;3752;-53
2022/04/27 02:16:44;;;;;;;;;;;;;;;;;;1023396;28;3733;-52
2022/04/27 02:17:16;;;;;;;;;;;;;;;;;;1022748;28;3586;-55
2022/04/27 02:17:46;;;;;;;;;;;;;;;;;;1024038;28;3916;-53
2022/04/27 02:18:18;;;;;;;;;;;;;;;;;;1023508;28;3647;-54
2022/04/27 02:18:48;;;;;;;;;;;;;;;;;;1027485;28;3803;-51
2022/04/27 02:19:20;;;;;;;;;;;;;;;;;;1026755;28;3528;-53
2022/04/27 02:19:51;;;;;;;;;;;;;;;;;;1027929;28;5995;-53
2022/04/27 02:20:23;;;;;;;;;;;;;;;;;;1029190;28;3821;-55
2022/04/27 02:20:53;;;;;;;;;;;;;;;;;;1027701;28;3429;-53
2022/04/27 02:21:24;;;;;;;;;;;;;;;;;;1028947;28;3782;-52
2022/04/27 02:21:56;;;;;;;;;;;;;;;;;;1027906;28;3996;-52
2022/04/27 02:22:26;;;;;;;;;;;;;;;;;;1024342;28;5274;-52
2022/04/27 02:22:56;;;;;;;;;;;;;;;;;;1024541;28;5330;-53
2022/04/27 02:23:27;;;;;;;;;;;;;;;;;;1025264;28;3664;-56
2022/04/27 02:23:57;;;;;;;;;;;;;;;;;;1024384;28;4838;-53
2022/04/27 02:24:27;;;;;;;;;;;;;;;;;;1026695;28;3750;-54
2022/04/27 02:24:57;;;;;;;;;;;;;;;;;;1029088;28;3858;-54
2022/04/27 02:25:28;;;;;;;;;;;;;;;;;;1028234;28;3561;-52
2022/04/27 02:26:01;;;;;;;;;;;;;;;;;;1027922;28;3649;-50
2022/04/27 02:26:31;;;;;;;;;;;;;;;;;;1027769;28;3600;-53
2022/04/27 02:27:01;;;;;;;;;;;;;;;;;;1028394;28;4236;-53
2022/04/27 02:27:32;;;;;;;;;;;;;;;;;;1025145;28;3770;-53
2022/04/27 02:28:03;;;;;;;;;;;;;;;;;;1022712;28;3570;-51
2022/04/27 02:28:33;;;;;;;;;;;;;;;;;;1023652;28;3914;-53
2022/04/27 02:29:03;;;;;;;;;;;;;;;;;;1023752;28;3740;-50
2022/04/27 02:29:33;;;;;;;;;;;;;;;;;;1028557;28;4270;-51
2022/04/27 02:30:04;;;;;;;;;;;;;;;;;;1027053;28;3580;-53
2022/04/27 02:30:34;;;;;;;;;;;;;;;;;;1028221;28;3587;-50
2022/04/27 02:31:05;;;;;;;;;;;;;;;;;;1027337;28;3779;-55
2022/04/27 02:31:35;;;;;;;;;;;;;;;;;;1027452;28;3678;-53
2022/04/27 02:32:05;;;;;;;;;;;;;;;;;;1026675;28;3779;-55
2022/04/27 02:32:42;;;;;;;;;;;;;;;;;;1024356;28;3615;-54
2022/04/27 02:33:12;;;;;;;;;;;;;;;;;;1025405;28;3522;-53
2022/04/27 02:33:43;;;;;;;;;;;;;;;;;;1024994;28;3399;-56
2022/04/27 02:34:13;;;;;;;;;;;;;;;;;;1028152;28;3648;-56
2022/04/27 02:34:43;;;;;;;;;;;;;;;;;;1028641;28;4340;-51
2022/04/27 02:35:14;;;;;;;;;;;;;;;;;;1028247;28;3897;-51
2022/04/27 02:35:44;;;;;;;;;;;;;;;;;;1027409;28;3683;-56
2022/04/27 02:36:15;;;;;;;;;;;;;;;;;;1027884;28;3409;-53
2022/04/27 02:36:45;;;;;;;;;;;;;;;;;;1026946;28;3750;-52
2022/04/27 02:37:15;;;;;;;;;;;;;;;;;;1027828;28;4046;-51
2022/04/27 02:37:46;;;;;;;;;;;;;;;;;;1027535;28;4065;-52
2022/04/27 02:38:16;;;;;;;;;;;;;;;;;;1028826;28;6441;-51
2022/04/27 02:38:47;;;;;;;;;;;;;;;;;;1026949;28;3698;-56
2022/04/27 02:39:17;;;;;;;;;;;;;;;;;;1027412;28;3531;-52
2022/04/27 02:39:47;;;;;;;;;;;;;;;;;;1028714;28;4419;-53
2022/04/27 02:40:17;;;;;;;;;;;;;;;;;;1026740;28;4756;-52
2022/04/27 02:40:48;;;;;;;;;;;;;;;;;;1028555;28;5990;-54
2022/04/27 02:41:18;;;;;;;;;;;;;;;;;;1028690;28;3647;-51
2022/04/27 02:41:49;;;;;;;;;;;;;;;;;;1028995;28;3845;-52
2022/04/27 02:42:19;;;;;;;;;;;;;;;;;;1028306;28;4082;-53
2022/04/27 02:42:49;;;;;;;;;;;;;;;;;;1029830;28;3485;-54
2022/04/27 02:43:21;;;;;;;;;;;;;;;;;;1028837;28;3595;-53
2022/04/27 02:43:51;;;;;;;;;;;;;;;;;;1029136;28;3716;-51
2022/04/27 02:44:21;;;;;;;;;;;;;;;;;;1027725;28;3912;-54
2022/04/27 02:44:52;;;;;;;;;;;;;;;;;;1026593;28;3879;-54
2022/04/27 02:45:22;;;;;;;;;;;;;;;;;;1027387;28;3801;-54
2022/04/27 02:45:52;;;;;;;;;;;;;;;;;;1028150;28;3474;-51
2022/04/27 02:46:22;;;;;;;;;;;;;;;;;;1027082;28;3724;-56
2022/04/27 02:46:53;;;;;;;;;;;;;;;;;;1026800;28;3969;-53
2022/04/27 02:47:23;;;;;;;;;;;;;;;;;;1024052;28;3812;-52
2022/04/27 02:47:54;;;;;;;;;;;;;;;;;;1020643;28;4378;-52
2022/04/27 02:48:24;;;;;;;;;;;;;;;;;;1021851;28;3964;-52
2022/04/27 02:52:10;;;;;;;;;;;;;;;;;;1026542;28;3823;-54
2022/04/27 02:52:40;;;;;;;;;;;;;;;;;;1026825;28;6022;-53
2022/04/27 02:53:11;;;;;;;;;;;;;;;;;;1028569;28;3764;-54
2022/04/27 02:53:41;;;;;;;;;;;;;;;;;;1027946;28;3661;-52
2022/04/27 02:54:11;;;;;;;;;;;;;;;;;;1028475;28;3563;-51
2022/04/27 02:54:41;;;;;;;;;;;;;;;;;;1027965;28;3521;-54
2022/04/27 02:55:12;;;;;;;;;;;;;;;;;;1028091;28;4014;-54
2022/04/27 02:55:43;;;;;;;;;;;;;;;;;;1028596;28;3726;-49
2022/04/27 02:56:13;;;;;;;;;;;;;;;;;;1028867;28;3711;-52
2022/04/27 02:56:43;;;;;;;;;;;;;;;;;;1027101;28;3923;-53
2022/04/27 02:57:16;;;;;;;;;;;;;;;;;;1028508;28;4968;-52
2022/04/27 02:57:46;;;;;;;;;;;;;;;;;;1028134;28;3563;-55
2022/04/27 02:58:16;;;;;;;;;;;;;;;;;;1028201;28;3736;-54
2022/04/27 02:58:46;;;;;;;;;;;;;;;;;;1028394;28;3807;-52
2022/04/27 02:59:17;;;;;;;;;;;;;;;;;;1027547;28;3572;-53
2022/04/27 02:59:47;;;;;;;;;;;;;;;;;;1028829;28;4584;-51
2022/04/27 03:00:17;;;;;;;;;;;;;;;;;;1026196;28;6132;-56
2022/04/27 03:00:47;;;;;;;;;;;;;;;;;;1027119;28;3577;-52
2022/04/27 03:01:18;;;;;;;;;;;;;;;;;;1027543;28;4232;-54
2022/04/27 03:01:48;;;;;;;;;;;;;;;;;;1023667;28;3600;-51
2022/04/27 03:02:18;;;;;;;;;;;;;;;;;;1022066;28;4019;-54
2022/04/27 03:02:49;;;;;;;;;;;;;;;;;;1023555;28;3623;-53
2022/04/27 03:03:19;;;;;;;;;;;;;;;;;;1025624;28;3766;-50
2022/04/27 03:03:49;;;;;;;;;;;;;;;;;;1028143;28;3757;-51
2022/04/27 03:04:19;;;;;;;;;;;;;;;;;;1028096;28;3573;-53
2022/04/27 03:04:50;;;;;;;;;;;;;;;;;;1028165;28;3537;-53
2022/04/27 03:05:20;;;;;;;;;;;;;;;;;;1027876;28;3627;-52
2022/04/27 03:05:50;;;;;;;;;;;;;;;;;;1028714;28;3805;-52
2022/04/27 03:06:20;;;;;;;;;;;;;;;;;;1027673;28;3531;-55
2022/04/27 03:06:51;;;;;;;;;;;;;;;;;;1026477;28;3584;-55
2022/04/27 03:07:21;;;;;;;;;;;;;;;;;;1025414;28;3908;-55
2022/04/27 03:07:51;;;;;;;;;;;;;;;;;;1028531;28;3769;-53
2022/04/27 03:08:22;;;;;;;;;;;;;;;;;;1029591;28;3563;-55
2022/04/27 03:08:52;;;;;;;;;;;;;;;;;;1025543;28;4682;-51
2022/04/27 03:09:23;;;;;;;;;;;;;;;;;;1024207;28;3581;-56
2022/04/27 03:09:54;;;;;;;;;;;;;;;;;;1025099;28;3975;-50
2022/04/27 03:10:24;;;;;;;;;;;;;;;;;;1023874;28;3891;-54
2022/04/27 03:10:54;;;;;;;;;;;;;;;;;;1029217;28;3510;-56
2022/04/27 03:11:37;;;;;;;;;;;;;;;;;;1028078;28;3823;-50
2022/04/27 03:12:15;;;;;;;;;;;;;;;;;;1027564;28;3615;-53
2022/04/27 03:12:45;;;;;;;;;;;;;;;;;;1027006;28;3512;-53
2022/04/27 03:13:15;;;;;;;;;;;;;;;;;;1028213;28;3663;-53
2022/04/27 03:13:46;;;;;;;;;;;;;;;;;;1028151;28;3671;-53
2022/04/27 03:14:16;;;;;;;;;;;;;;;;;;1027362;28;3587;-52
2022/04/27 03:14:46;;;;;;;;;;;;;;;;;;1023508;28;6070;-55
2022/04/27 03:15:17;;;;;;;;;;;;;;;;;;1023656;28;3578;-53
2022/04/27 03:15:47;;;;;;;;;;;;;;;;;;1019650;28;3710;-53
2022/04/27 03:16:17;;;;;;;;;;;;;;;;;;1015801;28;4726;-55
2022/04/27 03:16:49;;;;;;;;;;;;;;;;;;1019279;28;4001;-54
2022/04/27 03:17:19;;;;;;;;;;;;;;;;;;1016447;28;3506;-55
2022/04/27 03:18:16;;;;;;;;;;;;;;;;;;1021730;28;3708;-52
2022/04/27 03:18:39;;;;;;;;;;;;;;;;;;1024776;28;4222;-51
2022/04/27 03:19:10;;;;;;;;;;;;;;;;;;1025409;28;3883;-53
2022/04/27 03:19:40;;;;;;;;;;;;;;;;;;1027099;28;3541;-51
2022/04/27 03:20:11;;;;;;;;;;;;;;;;;;1024096;28;3528;-55
2022/04/27 03:20:41;;;;;;;;;;;;;;;;;;1023759;28;4767;-53
2022/04/27 03:21:11;;;;;;;;;;;;;;;;;;1023381;28;3571;-54
2022/04/27 03:21:42;;;;;;;;;;;;;;;;;;1022430;28;4128;-54
2022/04/27 03:22:12;;;;;;;;;;;;;;;;;;1023886;28;3454;-53
2022/04/27 03:22:43;;;;;;;;;;;;;;;;;;1023279;28;4665;-55
2022/04/27 03:23:13;;;;;;;;;;;;;;;;;;1025179;28;3598;-54
2022/04/27 03:23:44;;;;;;;;;;;;;;;;;;1024464;28;3876;-52
2022/04/27 03:24:15;;;;;;;;;;;;;;;;;;1027128;28;3730;-54
2022/04/27 03:24:45;;;;;;;;;;;;;;;;;;1027814;28;5132;-52
2022/04/27 03:25:16;;;;;;;;;;;;;;;;;;1025626;28;5336;-52
2022/04/27 03:25:47;;;;;;;;;;;;;;;;;;1027026;28;3698;-51
2022/04/27 03:26:17;;;;;;;;;;;;;;;;;;1028302;28;3637;-53
2022/04/27 03:26:47;;;;;;;;;;;;;;;;;;1027871;28;5228;-51
2022/04/27 03:27:17;;;;;;;;;;;;;;;;;;1027895;28;3718;-53
2022/04/27 03:27:47;;;;;;;;;;;;;;;;;;1026832;28;3535;-55
2022/04/27 03:28:18;;;;;;;;;;;;;;;;;;1027515;28;5238;-51
2022/04/27 03:28:48;;;;;;;;;;;;;;;;;;1027931;28;4573;-54
2022/04/27 03:29:19;;;;;;;;;;;;;;;;;;1026448;28;3877;-50
2022/04/27 03:29:50;;;;;;;;;;;;;;;;;;1025802;28;3898;-54
2022/04/27 03:30:20;;;;;;;;;;;;;;;;;;1026760;28;4249;-54
2022/04/27 03:30:50;;;;;;;;;;;;;;;;;;1027259;28;3599;-53
2022/04/27 03:31:21;;;;;;;;;;;;;;;;;;1026121;28;3489;-53
2022/04/27 03:31:51;;;;;;;;;;;;;;;;;;1026308;28;3479;-54
2022/04/27 03:32:22;;;;;;;;;;;;;;;;;;1028066;28;3724;-55
2022/04/27 03:33:00;;;;;;;;;;;;;;;;;;1026981;28;3558;-51
2022/04/27 03:33:30;;;;;;;;;;;;;;;;;;1027528;28;3692;-56
2022/04/27 03:34:01;;;;;;;;;;;;;;;;;;1027407;28;4597;-54
2022/04/27 03:34:31;;;;;;;;;;;;;;;;;;1028458;28;3441;-54
2022/04/27 03:35:01;;;;;;;;;;;;;;;;;;1026934;28;3912;-52
2022/04/27 03:35:32;;;;;;;;;;;;;;;;;;1027319;28;3729;-55
2022/04/27 03:36:02;;;;;;;;;;;;;;;;;;1027450;28;3797;-50
2022/04/27 03:36:32;;;;;;;;;;;;;;;;;;1029063;28;3692;-55
2022/04/27 03:37:03;;;;;;;;;;;;;;;;;;1027224;28;4909;-54
2022/04/27 03:37:34;;;;;;;;;;;;;;;;;;1028286;28;4552;-55
2022/04/27 03:38:07;;;;;;;;;;;;;;;;;;1027396;28;3891;-55
2022/04/27 03:38:38;;;;;;;;;;;;;;;;;;1027180;28;3505;-54
2022/04/27 03:39:08;;;;;;;;;;;;;;;;;;1026872;28;3606;-52
2022/04/27 03:39:38;;;;;;;;;;;;;;;;;;1028054;28;3507;-53
2022/04/27 03:40:09;;;;;;;;;;;;;;;;;;1028889;28;3688;-54
2022/04/27 03:40:41;;;;;;;;;;;;;;;;;;1027453;28;4635;-53
2022/04/27 03:41:12;;;;;;;;;;;;;;;;;;1024481;28;3824;-54
2022/04/27 03:41:42;;;;;;;;;;;;;;;;;;1024741;28;3805;-53
2022/04/27 03:42:13;;;;;;;;;;;;;;;;;;1025065;28;3541;-51
2022/04/27 03:42:43;;;;;;;;;;;;;;;;;;1024763;28;3552;-51